sensor_id;sensor_type;location;lat;lon;timestamp;pressure;altitude;pressure_sealevel;temperature;humidity
3780;BME280;1905;52.482;9.802;2023-03-25T00:00:41;99678.50;;;9.30;83.55
3780;BME280;1905;52.482;9.802;2023-03-25T00:03:10;99681.13;;;9.30;84.35
3780;BME280;1905;52.482;9.802;2023-03-25T00:05:38;99676.88;;;9.27;84.32
3780;BME280;1905;52.482;9.802;2023-03-25T00:08:06;99673.31;;;9.28;84.62
3780;BME280;1905;52.482;9.802;2023-03-25T00:10:34;99673.22;;;9.30;84.91
3780;BME280;1905;52.482;9.802;2023-03-25T00:13:03;99675.94;;;9.28;84.81
3780;BME280;1905;52.482;9.802;2023-03-25T00:15:32;99670.59;;;9.30;85.26
3780;BME280;1905;52.482;9.802;2023-03-25T00:18:00;99663.63;;;9.29;84.16
3780;BME280;1905;52.482;9.802;2023-03-25T00:20:28;99662.69;;;9.30;84.83
3780;BME280;1905;52.482;9.802;2023-03-25T00:22:57;99668.06;;;9.28;84.53
3780;BME280;1905;52.482;9.802;2023-03-25T00:25:25;99666.28;;;9.29;84.63
3780;BME280;1905;52.482;9.802;2023-03-25T00:27:52;99660.22;;;9.27;84.63
3780;BME280;1905;52.482;9.802;2023-03-25T00:30:21;99655.72;;;9.29;83.60
3780;BME280;1905;52.482;9.802;2023-03-25T00:32:49;99652.06;;;9.31;84.82
3780;BME280;1905;52.482;9.802;2023-03-25T00:35:19;99647.03;;;9.27;83.96
3780;BME280;1905;52.482;9.802;2023-03-25T00:37:48;99647.66;;;9.32;85.01
3780;BME280;1905;52.482;9.802;2023-03-25T00:40:17;99652.06;;;9.31;84.51
3780;BME280;1905;52.482;9.802;2023-03-25T00:42:45;99656.50;;;9.31;84.80
3780;BME280;1905;52.482;9.802;2023-03-25T00:45:16;99656.50;;;9.31;84.26
3780;BME280;1905;52.482;9.802;2023-03-25T00:47:44;99656.50;;;9.31;84.62
3780;BME280;1905;52.482;9.802;2023-03-25T00:50:13;99652.94;;;9.32;84.09
3780;BME280;1905;52.482;9.802;2023-03-25T00:52:40;99656.50;;;9.31;83.58
3780;BME280;1905;52.482;9.802;2023-03-25T00:55:09;99652.94;;;9.32;84.40
3780;BME280;1905;52.482;9.802;2023-03-25T00:57:36;99667.03;;;9.31;84.66
3780;BME280;1905;52.482;9.802;2023-03-25T01:00:06;99667.03;;;9.31;85.13
3780;BME280;1905;52.482;9.802;2023-03-25T01:02:37;99665.31;;;9.30;84.14
3780;BME280;1905;52.482;9.802;2023-03-25T01:05:08;99663.47;;;9.32;83.95
3780;BME280;1905;52.482;9.802;2023-03-25T01:07:37;99665.31;;;9.30;84.06
3780;BME280;1905;52.482;9.802;2023-03-25T01:10:07;99656.59;;;9.29;84.23
3780;BME280;1905;52.482;9.802;2023-03-25T01:12:35;99662.63;;;9.31;83.54
3780;BME280;1905;52.482;9.802;2023-03-25T01:15:03;99670.59;;;9.30;84.78
3780;BME280;1905;52.482;9.802;2023-03-25T01:17:31;99660.03;;;9.30;83.63
3780;BME280;1905;52.482;9.802;2023-03-25T01:20:01;99652.94;;;9.32;84.09
3780;BME280;1905;52.482;9.802;2023-03-25T01:22:32;99652.06;;;9.31;83.94
3780;BME280;1905;52.482;9.802;2023-03-25T01:25:02;99646.81;;;9.31;83.87
3780;BME280;1905;52.482;9.802;2023-03-25T01:27:30;99644.19;;;9.31;84.45
3780;BME280;1905;52.482;9.802;2023-03-25T01:29:58;99647.81;;;9.29;84.23
3780;BME280;1905;52.482;9.802;2023-03-25T01:32:27;99646.97;;;9.28;84.33
3780;BME280;1905;52.482;9.802;2023-03-25T01:34:55;99637.94;;;9.32;84.47
3780;BME280;1905;52.482;9.802;2023-03-25T01:37:22;99646.72;;;9.33;84.16
3780;BME280;1905;52.482;9.802;2023-03-25T01:39:52;99649.28;;;9.34;84.31
3780;BME280;1905;52.482;9.802;2023-03-25T01:42:19;99645.69;;;9.35;84.22
3780;BME280;1905;52.482;9.802;2023-03-25T01:45:13;99647.13;;;9.41;84.46
3780;BME280;1905;52.482;9.802;2023-03-25T01:47:42;99637.72;;;9.37;84.14
3780;BME280;1905;52.482;9.802;2023-03-25T01:50:10;99638.47;;;9.39;84.46
3780;BME280;1905;52.482;9.802;2023-03-25T01:52:42;99634.75;;;9.43;83.80
3780;BME280;1905;52.482;9.802;2023-03-25T01:55:13;99638.91;;;9.47;84.74
3780;BME280;1905;52.482;9.802;2023-03-25T01:57:44;99636.09;;;9.50;84.46
3780;BME280;1905;52.482;9.802;2023-03-25T02:00:14;99633.44;;;9.50;84.38
3780;BME280;1905;52.482;9.802;2023-03-25T02:02:46;99627.06;;;9.54;83.62
3780;BME280;1905;52.482;9.802;2023-03-25T02:05:17;99624.53;;;9.52;84.01
3780;BME280;1905;52.482;9.802;2023-03-25T02:07:48;99616.50;;;9.54;83.74
3780;BME280;1905;52.482;9.802;2023-03-25T02:10:17;99619.78;;;9.59;84.44
3780;BME280;1905;52.482;9.802;2023-03-25T02:12:45;99624.94;;;9.61;84.01
3780;BME280;1905;52.482;9.802;2023-03-25T02:15:14;99624.66;;;9.65;83.69
3780;BME280;1905;52.482;9.802;2023-03-25T02:18:00;99623.84;;;9.65;84.31
3780;BME280;1905;52.482;9.802;2023-03-25T02:23:45;99627.47;;;9.62;84.92
3780;BME280;1905;52.482;9.802;2023-03-25T02:26:37;99628.25;;;9.64;85.14
3780;BME280;1905;52.482;9.802;2023-03-25T02:29:25;99629.34;;;9.60;84.83
3780;BME280;1905;52.482;9.802;2023-03-25T02:32:10;99630.91;;;9.64;85.52
3780;BME280;1905;52.482;9.802;2023-03-25T02:34:48;99633.53;;;9.64;86.57
3780;BME280;1905;52.482;9.802;2023-03-25T02:37:44;99636.94;;;9.66;85.16
3780;BME280;1905;52.482;9.802;2023-03-25T02:40:21;99630.03;;;9.64;86.59
3780;BME280;1905;52.482;9.802;2023-03-25T02:42:55;99628.25;;;9.64;86.55
3780;BME280;1905;52.482;9.802;2023-03-25T02:45:29;99627.56;;;9.61;86.38
3780;BME280;1905;52.482;9.802;2023-03-25T02:48:01;99630.13;;;9.62;87.41
3780;BME280;1905;52.482;9.802;2023-03-25T02:50:34;99623.75;;;9.66;85.76
3780;BME280;1905;52.482;9.802;2023-03-25T02:53:08;99630.72;;;9.67;85.28
3780;BME280;1905;52.482;9.802;2023-03-25T02:55:39;99622.03;;;9.65;85.84
3780;BME280;1905;52.482;9.802;2023-03-25T02:58:10;99607.81;;;9.68;85.67
3780;BME280;1905;52.482;9.802;2023-03-25T03:00:39;99607.81;;;9.68;85.23
3780;BME280;1905;52.482;9.802;2023-03-25T03:03:08;99609.47;;;9.70;85.30
3780;BME280;1905;52.482;9.802;2023-03-25T03:05:39;99620.19;;;9.67;85.72
3780;BME280;1905;52.482;9.802;2023-03-25T03:08:23;99608.84;;;9.65;85.34
3780;BME280;1905;52.482;9.802;2023-03-25T03:11:00;99603.50;;;9.67;85.28
3780;BME280;1905;52.482;9.802;2023-03-25T03:13:41;99610.41;;;9.69;84.99
3780;BME280;1905;52.482;9.802;2023-03-25T03:16:14;99603.41;;;9.68;84.87
3780;BME280;1905;52.482;9.802;2023-03-25T03:18:53;99601.72;;;9.67;85.30
3780;BME280;1905;52.482;9.802;2023-03-25T03:21:32;99606.31;;;9.64;84.47
3780;BME280;1905;52.482;9.802;2023-03-25T03:24:09;99608.03;;;9.65;84.18
3780;BME280;1905;52.482;9.802;2023-03-25T03:26:41;99610.56;;;9.66;84.52
3780;BME280;1905;52.482;9.802;2023-03-25T03:29:16;99608.84;;;9.65;84.42
3780;BME280;1905;52.482;9.802;2023-03-25T03:31:49;99621.22;;;9.65;84.46
3780;BME280;1905;52.482;9.802;2023-03-25T03:34:34;99612.34;;;9.66;84.32
3780;BME280;1905;52.482;9.802;2023-03-25T03:37:07;99606.31;;;9.64;84.59
3780;BME280;1905;52.482;9.802;2023-03-25T03:39:41;99606.22;;;9.65;84.35
3780;BME280;1905;52.482;9.802;2023-03-25T03:42:15;99614.13;;;9.65;83.95
3780;BME280;1905;52.482;9.802;2023-03-25T03:44:48;99620.25;;;9.66;84.12
3780;BME280;1905;52.482;9.802;2023-03-25T03:47:24;99621.28;;;9.63;84.09
3780;BME280;1905;52.482;9.802;2023-03-25T03:49:58;99609.72;;;9.66;84.01
3780;BME280;1905;52.482;9.802;2023-03-25T03:52:32;99616.75;;;9.65;84.23
3780;BME280;1905;52.482;9.802;2023-03-25T03:55:06;99611.41;;;9.67;84.14
3780;BME280;1905;52.482;9.802;2023-03-25T03:57:42;99617.72;;;9.64;84.17
3780;BME280;1905;52.482;9.802;2023-03-25T04:00:15;99613.31;;;9.65;83.66
3780;BME280;1905;52.482;9.802;2023-03-25T04:02:48;99622.13;;;9.64;83.80
3780;BME280;1905;52.482;9.802;2023-03-25T04:05:18;99620.44;;;9.63;84.07
3780;BME280;1905;52.482;9.802;2023-03-25T04:07:51;99619.50;;;9.64;83.63
3780;BME280;1905;52.482;9.802;2023-03-25T04:10:26;99624.66;;;9.65;82.87
3780;BME280;1905;52.482;9.802;2023-03-25T04:13:03;99614.22;;;9.64;83.07
3780;BME280;1905;52.482;9.802;2023-03-25T04:15:32;99622.03;;;9.65;83.25
3780;BME280;1905;52.482;9.802;2023-03-25T04:17:59;99619.56;;;9.62;83.06
3780;BME280;1905;52.482;9.802;2023-03-25T04:20:31;99618.63;;;9.63;83.34
3780;BME280;1905;52.482;9.802;2023-03-25T04:23:03;99632.00;;;9.60;83.10
3780;BME280;1905;52.482;9.802;2023-03-25T04:25:32;99631.81;;;9.63;83.06
3780;BME280;1905;52.482;9.802;2023-03-25T04:27:59;99630.13;;;9.62;83.68
3780;BME280;1905;52.482;9.802;2023-03-25T04:30:28;99631.81;;;9.63;83.30
3780;BME280;1905;52.482;9.802;2023-03-25T04:32:56;99625.03;;;9.59;83.77
3780;BME280;1905;52.482;9.802;2023-03-25T04:35:26;99623.16;;;9.61;83.90
3780;BME280;1905;52.482;9.802;2023-03-25T04:37:53;99629.53;;;9.57;83.59
3780;BME280;1905;52.482;9.802;2023-03-25T04:40:23;99617.88;;;9.61;83.46
3780;BME280;1905;52.482;9.802;2023-03-25T04:42:52;99631.25;;;9.58;82.99
3780;BME280;1905;52.482;9.802;2023-03-25T04:45:22;99632.94;;;9.59;82.76
3780;BME280;1905;52.482;9.802;2023-03-25T04:47:51;99630.56;;;9.54;83.22
3780;BME280;1905;52.482;9.802;2023-03-25T04:50:22;99625.97;;;9.58;82.20
3780;BME280;1905;52.482;9.802;2023-03-25T04:52:50;99622.75;;;9.53;82.95
3780;BME280;1905;52.482;9.802;2023-03-25T04:55:19;99620.97;;;9.53;82.01
3780;BME280;1905;52.482;9.802;2023-03-25T04:57:49;99607.84;;;9.52;82.96
3780;BME280;1905;52.482;9.802;2023-03-25T05:00:19;99613.97;;;9.52;82.63
3780;BME280;1905;52.482;9.802;2023-03-25T05:02:49;99609.56;;;9.53;82.95
3780;BME280;1905;52.482;9.802;2023-03-25T05:05:19;99618.31;;;9.53;82.97
3780;BME280;1905;52.482;9.802;2023-03-25T05:07:48;99616.88;;;9.48;83.12
3780;BME280;1905;52.482;9.802;2023-03-25T05:10:17;99608.13;;;9.47;82.18
3780;BME280;1905;52.482;9.802;2023-03-25T05:12:45;99611.78;;;9.45;82.70
3780;BME280;1905;52.482;9.802;2023-03-25T05:15:13;99618.94;;;9.43;83.46
3780;BME280;1905;52.482;9.802;2023-03-25T05:17:43;99614.59;;;9.42;82.80
3780;BME280;1905;52.482;9.802;2023-03-25T05:20:11;99621.63;;;9.41;82.44
3780;BME280;1905;52.482;9.802;2023-03-25T05:22:40;99627.94;;;9.39;82.85
3780;BME280;1905;52.482;9.802;2023-03-25T05:25:09;99626.22;;;9.38;81.98
3780;BME280;1905;52.482;9.802;2023-03-25T05:27:37;99623.16;;;9.30;82.51
3780;BME280;1905;52.482;9.802;2023-03-25T05:30:06;99622.84;;;9.36;82.26
3780;BME280;1905;52.482;9.802;2023-03-25T05:32:33;99623.00;;;9.33;82.35
3780;BME280;1905;52.482;9.802;2023-03-25T05:35:04;99636.09;;;9.34;82.89
3780;BME280;1905;52.482;9.802;2023-03-25T05:37:32;99623.00;;;9.33;82.02
3780;BME280;1905;52.482;9.802;2023-03-25T05:39:59;99634.50;;;9.32;82.81
3780;BME280;1905;52.482;9.802;2023-03-25T05:42:30;99637.13;;;9.32;82.21
3780;BME280;1905;52.482;9.802;2023-03-25T05:44:58;99641.88;;;9.25;82.78
3780;BME280;1905;52.482;9.802;2023-03-25T05:47:26;99635.75;;;9.25;82.23
3780;BME280;1905;52.482;9.802;2023-03-25T05:49:54;99642.72;;;9.26;82.64
3780;BME280;1905;52.482;9.802;2023-03-25T05:52:23;99635.09;;;9.21;82.31
3780;BME280;1905;52.482;9.802;2023-03-25T05:54:52;99638.38;;;9.25;83.16
3780;BME280;1905;52.482;9.802;2023-03-25T05:57:21;99647.22;;;9.24;82.49
3780;BME280;1905;52.482;9.802;2023-03-25T05:59:48;99646.53;;;9.20;82.65
3780;BME280;1905;52.482;9.802;2023-03-25T06:02:16;99655.13;;;9.24;82.56
3780;BME280;1905;52.482;9.802;2023-03-25T06:04:46;99658.53;;;9.26;82.70
3780;BME280;1905;52.482;9.802;2023-03-25T06:07:16;99656.59;;;9.29;82.22
3780;BME280;1905;52.482;9.802;2023-03-25T06:09:47;99658.53;;;9.26;82.29
3780;BME280;1905;52.482;9.802;2023-03-25T06:12:21;99653.31;;;9.24;82.52
3780;BME280;1905;52.482;9.802;2023-03-25T06:14:49;99654.03;;;9.28;83.00
3780;BME280;1905;52.482;9.802;2023-03-25T06:17:20;99649.66;;;9.27;82.31
3780;BME280;1905;52.482;9.802;2023-03-25T06:19:49;99646.13;;;9.28;82.87
3780;BME280;1905;52.482;9.802;2023-03-25T06:22:18;99652.94;;;9.32;82.94
3780;BME280;1905;52.482;9.802;2023-03-25T06:24:48;99655.63;;;9.30;82.99
3780;BME280;1905;52.482;9.802;2023-03-25T06:27:18;99658.19;;;9.32;82.65
3780;BME280;1905;52.482;9.802;2023-03-25T06:29:46;99658.19;;;9.32;82.66
3780;BME280;1905;52.482;9.802;2023-03-25T06:32:14;99647.66;;;9.32;83.14
3780;BME280;1905;52.482;9.802;2023-03-25T06:34:41;99647.47;;;9.35;83.22
3780;BME280;1905;52.482;9.802;2023-03-25T06:37:10;99649.94;;;9.38;83.00
3780;BME280;1905;52.482;9.802;2023-03-25T06:39:37;99649.78;;;9.41;82.65
3780;BME280;1905;52.482;9.802;2023-03-25T06:42:16;99649.59;;;9.44;83.48
3780;BME280;1905;52.482;9.802;2023-03-25T06:45:19;99652.34;;;9.42;82.60
3780;BME280;1905;52.482;9.802;2023-03-25T06:48:02;99658.19;;;9.47;83.33
3780;BME280;1905;52.482;9.802;2023-03-25T06:50:30;99646.78;;;9.47;83.11
3780;BME280;1905;52.482;9.802;2023-03-25T06:52:58;99653.63;;;9.51;83.03
3780;BME280;1905;52.482;9.802;2023-03-25T06:55:26;99654.38;;;9.53;83.37
3780;BME280;1905;52.482;9.802;2023-03-25T06:57:55;99645.44;;;9.55;82.78
3780;BME280;1905;52.482;9.802;2023-03-25T07:00:23;99647.06;;;9.58;82.84
3780;BME280;1905;52.482;9.802;2023-03-25T07:02:52;99643.38;;;9.61;82.31
3780;BME280;1905;52.482;9.802;2023-03-25T07:05:19;99642.19;;;9.66;82.01
3780;BME280;1905;52.482;9.802;2023-03-25T07:07:47;99649.19;;;9.67;82.16
3780;BME280;1905;52.482;9.802;2023-03-25T07:10:15;99649.94;;;9.69;81.83
3780;BME280;1905;52.482;9.802;2023-03-25T07:12:45;99653.44;;;9.70;81.85
3780;BME280;1905;52.482;9.802;2023-03-25T07:15:14;99647.97;;;9.73;81.85
3780;BME280;1905;52.482;9.802;2023-03-25T07:17:43;99652.97;;;9.77;81.65
3780;BME280;1905;52.482;9.802;2023-03-25T07:20:14;99643.19;;;9.79;81.47
3780;BME280;1905;52.482;9.802;2023-03-25T07:22:43;99647.19;;;9.86;80.80
3780;BME280;1905;52.482;9.802;2023-03-25T07:25:11;99658.66;;;9.85;81.74
3780;BME280;1905;52.482;9.802;2023-03-25T07:27:39;99657.66;;;9.88;81.31
3780;BME280;1905;52.482;9.802;2023-03-25T07:30:14;99667.09;;;9.92;81.38
3780;BME280;1905;52.482;9.802;2023-03-25T07:32:43;99656.28;;;9.96;81.58
3780;BME280;1905;52.482;9.802;2023-03-25T07:35:10;99653.34;;;10.01;80.18
3780;BME280;1905;52.482;9.802;2023-03-25T07:37:38;99652.31;;;10.03;81.59
3780;BME280;1905;52.482;9.802;2023-03-25T07:40:06;99655.53;;;10.08;81.83
3780;BME280;1905;52.482;9.802;2023-03-25T07:42:35;99665.78;;;10.14;81.49
3780;BME280;1905;52.482;9.802;2023-03-25T07:45:20;99669.16;;;10.16;81.25
3780;BME280;1905;52.482;9.802;2023-03-25T07:47:49;99661.06;;;10.20;80.81
3780;BME280;1905;52.482;9.802;2023-03-25T07:50:20;99667.88;;;10.24;80.78
3780;BME280;1905;52.482;9.802;2023-03-25T07:52:51;99660.72;;;10.26;79.78
3780;BME280;1905;52.482;9.802;2023-03-25T07:55:18;99671.22;;;10.27;80.04
3780;BME280;1905;52.482;9.802;2023-03-25T07:57:46;99671.84;;;10.31;79.81
3780;BME280;1905;52.482;9.802;2023-03-25T08:00:14;99673.38;;;10.35;80.29
3780;BME280;1905;52.482;9.802;2023-03-25T08:02:43;99674.91;;;10.39;80.02
3780;BME280;1905;52.482;9.802;2023-03-25T08:05:10;99676.06;;;10.49;79.97
3780;BME280;1905;52.482;9.802;2023-03-25T08:07:50;99668.97;;;10.49;80.71
3780;BME280;1905;52.482;9.802;2023-03-25T08:10:19;99667.69;;;10.56;80.12
3780;BME280;1905;52.482;9.802;2023-03-25T08:12:46;99670.03;;;10.61;80.35
3780;BME280;1905;52.482;9.802;2023-03-25T08:15:14;99666.09;;;10.68;80.17
3780;BME280;1905;52.482;9.802;2023-03-25T08:17:44;99687.88;;;10.71;79.33
3780;BME280;1905;52.482;9.802;2023-03-25T08:20:12;99668.28;;;10.75;80.73
3780;BME280;1905;52.482;9.802;2023-03-25T08:22:42;99677.69;;;10.80;79.91
3780;BME280;1905;52.482;9.802;2023-03-25T08:25:10;99687.34;;;10.81;79.92
3780;BME280;1905;52.482;9.802;2023-03-25T08:27:38;99676.59;;;10.84;79.39
3780;BME280;1905;52.482;9.802;2023-03-25T08:30:06;99679.88;;;10.87;79.23
3780;BME280;1905;52.482;9.802;2023-03-25T08:32:36;99685.25;;;10.86;78.35
3780;BME280;1905;52.482;9.802;2023-03-25T08:35:07;99682.72;;;10.84;78.41
3780;BME280;1905;52.482;9.802;2023-03-25T08:37:35;99674.69;;;10.86;78.56
3780;BME280;1905;52.482;9.802;2023-03-25T08:40:04;99679.13;;;10.85;78.29
3780;BME280;1905;52.482;9.802;2023-03-25T08:42:34;99680.66;;;10.89;79.32
3780;BME280;1905;52.482;9.802;2023-03-25T08:45:02;99678.94;;;10.88;77.73
3780;BME280;1905;52.482;9.802;2023-03-25T08:47:31;99676.28;;;10.88;77.96
3780;BME280;1905;52.482;9.802;2023-03-25T08:49:58;99677.91;;;10.91;79.54
3780;BME280;1905;52.482;9.802;2023-03-25T08:52:27;99681.41;;;10.91;77.75
3780;BME280;1905;52.482;9.802;2023-03-25T08:54:55;99685.75;;;10.92;78.09
3780;BME280;1905;52.482;9.802;2023-03-25T08:57:24;99674.97;;;10.95;77.38
3780;BME280;1905;52.482;9.802;2023-03-25T08:59:52;99677.53;;;10.97;77.75
3780;BME280;1905;52.482;9.802;2023-03-25T09:02:19;99666.09;;;10.96;77.78
3780;BME280;1905;52.482;9.802;2023-03-25T09:04:47;99665.91;;;10.99;77.93
3780;BME280;1905;52.482;9.802;2023-03-25T09:07:15;99674.41;;;11.04;77.82
3780;BME280;1905;52.482;9.802;2023-03-25T09:09:46;99673.56;;;11.04;77.96
3780;BME280;1905;52.482;9.802;2023-03-25T09:12:18;99679.69;;;11.04;78.31
3780;BME280;1905;52.482;9.802;2023-03-25T09:14:47;99683.94;;;11.07;78.67
3780;BME280;1905;52.482;9.802;2023-03-25T09:17:15;99692.53;;;11.10;78.81
3780;BME280;1905;52.482;9.802;2023-03-25T09:19:43;99684.91;;;11.06;79.98
3780;BME280;1905;52.482;9.802;2023-03-25T09:22:10;99688.19;;;11.09;80.47
3780;BME280;1905;52.482;9.802;2023-03-25T09:24:38;99682.44;;;11.17;80.36
3780;BME280;1905;52.482;9.802;2023-03-25T09:27:08;99689.34;;;11.19;80.47
3780;BME280;1905;52.482;9.802;2023-03-25T09:29:35;99685.91;;;11.17;80.72
3780;BME280;1905;52.482;9.802;2023-03-25T09:32:03;99685.91;;;11.17;80.83
3780;BME280;1905;52.482;9.802;2023-03-25T09:34:31;99676.88;;;11.21;80.80
3780;BME280;1905;52.482;9.802;2023-03-25T09:37:00;99678.75;;;11.19;81.32
3780;BME280;1905;52.482;9.802;2023-03-25T09:39:28;99691.88;;;11.21;81.18
3780;BME280;1905;52.482;9.802;2023-03-25T09:42:12;99684.22;;;11.30;81.11
3780;BME280;1905;52.482;9.802;2023-03-25T09:44:54;99678.66;;;11.35;81.04
3780;BME280;1905;52.482;9.802;2023-03-25T09:47:28;99689.28;;;11.33;80.52
3780;BME280;1905;52.482;9.802;2023-03-25T09:50:00;99687.69;;;11.31;80.45
3780;BME280;1905;52.482;9.802;2023-03-25T09:52:35;99686.66;;;11.33;80.41
3780;BME280;1905;52.482;9.802;2023-03-25T09:55:06;99679.50;;;11.35;80.33
3780;BME280;1905;52.482;9.802;2023-03-25T09:57:43;99673.66;;;11.30;79.68
3780;BME280;1905;52.482;9.802;2023-03-25T10:00:17;99677.03;;;11.32;79.53
3780;BME280;1905;52.482;9.802;2023-03-25T10:02:50;99679.09;;;11.42;79.33
3780;BME280;1905;52.482;9.802;2023-03-25T10:05:38;99673.25;;;11.36;79.13
3780;BME280;1905;52.482;9.802;2023-03-25T10:08:16;99669.38;;;11.42;78.28
3780;BME280;1905;52.482;9.802;2023-03-25T10:10:54;99672.28;;;11.52;79.33
3780;BME280;1905;52.482;9.802;2023-03-25T10:13:33;99678.03;;;11.58;78.36
3780;BME280;1905;52.482;9.802;2023-03-25T10:16:10;99676.03;;;11.62;77.35
3780;BME280;1905;52.482;9.802;2023-03-25T10:18:51;99672.94;;;11.69;78.05
3780;BME280;1905;52.482;9.802;2023-03-25T10:21:25;99671.03;;;11.71;77.45
3780;BME280;1905;52.482;9.802;2023-03-25T10:24:03;99664.06;;;11.70;77.22
3780;BME280;1905;52.482;9.802;2023-03-25T10:26:46;99659.00;;;11.80;77.10
3780;BME280;1905;52.482;9.802;2023-03-25T10:29:20;99666.84;;;11.81;76.81
3780;BME280;1905;52.482;9.802;2023-03-25T10:31:56;99654.19;;;11.86;76.03
3780;BME280;1905;52.482;9.802;2023-03-25T10:34:34;99670.59;;;11.91;75.45
3780;BME280;1905;52.482;9.802;2023-03-25T10:37:05;99657.81;;;11.98;75.32
3780;BME280;1905;52.482;9.802;2023-03-25T10:39:45;99661.88;;;12.04;74.74
3780;BME280;1905;52.482;9.802;2023-03-25T10:42:23;99662.69;;;12.04;74.65
3780;BME280;1905;52.482;9.802;2023-03-25T10:44:53;99655.31;;;12.09;74.18
3780;BME280;1905;52.482;9.802;2023-03-25T10:47:25;99651.41;;;12.15;73.51
3780;BME280;1905;52.482;9.802;2023-03-25T10:50:01;99654.88;;;12.15;74.21
3780;BME280;1905;52.482;9.802;2023-03-25T10:52:37;99655.94;;;12.13;72.29
3780;BME280;1905;52.482;9.802;2023-03-25T10:55:22;99662.22;;;12.24;73.60
3780;BME280;1905;52.482;9.802;2023-03-25T10:57:51;99658.31;;;12.17;71.89
3780;BME280;1905;52.482;9.802;2023-03-25T11:00:21;99663.38;;;12.20;71.46
3780;BME280;1905;52.482;9.802;2023-03-25T11:02:51;99659.03;;;12.19;72.76
3780;BME280;1905;52.482;9.802;2023-03-25T11:05:26;99663.81;;;12.14;73.49
3780;BME280;1905;52.482;9.802;2023-03-25T11:07:57;99660.94;;;12.17;72.62
3780;BME280;1905;52.482;9.802;2023-03-25T11:10:46;99667.53;;;12.24;73.51
3780;BME280;1905;52.482;9.802;2023-03-25T11:13:16;99659.97;;;12.18;71.20
3780;BME280;1905;52.482;9.802;2023-03-25T11:15:51;99666.13;;;12.19;72.01
3780;BME280;1905;52.482;9.802;2023-03-25T11:18:23;99665.47;;;12.15;71.64
3780;BME280;1905;52.482;9.802;2023-03-25T11:20:55;99666.78;;;12.22;71.87
3780;BME280;1905;52.482;9.802;2023-03-25T11:23:25;99658.63;;;12.25;73.63
3780;BME280;1905;52.482;9.802;2023-03-25T11:25:55;99663.16;;;12.23;73.62
3780;BME280;1905;52.482;9.802;2023-03-25T11:28:35;99654.28;;;12.24;74.01
3780;BME280;1905;52.482;9.802;2023-03-25T11:31:14;99660.31;;;12.26;72.71
3780;BME280;1905;52.482;9.802;2023-03-25T11:33:44;99652.25;;;12.15;70.29
3780;BME280;1905;52.482;9.802;2023-03-25T11:36:21;99658.31;;;12.17;70.29
3780;BME280;1905;52.482;9.802;2023-03-25T11:38:56;99650.38;;;12.17;71.69
3780;BME280;1905;52.482;9.802;2023-03-25T11:41:27;99644.84;;;12.20;71.86
3780;BME280;1905;52.482;9.802;2023-03-25T11:43:56;99652.50;;;12.25;71.44
3780;BME280;1905;52.482;9.802;2023-03-25T11:46:26;99647.28;;;12.23;72.43
3780;BME280;1905;52.482;9.802;2023-03-25T11:48:53;99655.53;;;12.19;72.01
3780;BME280;1905;52.482;9.802;2023-03-25T11:51:23;99644.84;;;12.20;71.77
3780;BME280;1905;52.482;9.802;2023-03-25T11:53:56;99642.19;;;12.20;72.39
3780;BME280;1905;52.482;9.802;2023-03-25T11:56:28;99652.56;;;12.23;72.42
3780;BME280;1905;52.482;9.802;2023-03-25T11:58:59;99657.88;;;12.23;73.00
3780;BME280;1905;52.482;9.802;2023-03-25T12:01:37;99663.16;;;12.23;73.75
3780;BME280;1905;52.482;9.802;2023-03-25T12:04:12;99657.47;;;12.29;74.58
3780;BME280;1905;52.482;9.802;2023-03-25T12:06:58;99665.94;;;12.22;75.24
3780;BME280;1905;52.482;9.802;2023-03-25T12:09:29;99683.06;;;12.16;75.30
3780;BME280;1905;52.482;9.802;2023-03-25T12:12:24;99656.78;;;12.13;74.32
3780;BME280;1905;52.482;9.802;2023-03-25T12:15:07;99679.88;;;12.11;73.76
3780;BME280;1905;52.482;9.802;2023-03-25T12:17:50;99649.78;;;12.12;74.71
3780;BME280;1905;52.482;9.802;2023-03-25T12:20:27;99646.41;;;12.10;74.67
3780;BME280;1905;52.482;9.802;2023-03-25T12:23:00;99643.22;;;12.05;74.99
3780;BME280;1905;52.482;9.802;2023-03-25T12:25:37;99639.22;;;12.12;74.90
3780;BME280;1905;52.482;9.802;2023-03-25T12:28:17;99627.59;;;12.15;75.22
3780;BME280;1905;52.482;9.802;2023-03-25T12:30:55;99630.31;;;12.13;75.03
3780;BME280;1905;52.482;9.802;2023-03-25T12:33:37;99623.56;;;12.09;74.30
3780;BME280;1905;52.482;9.802;2023-03-25T12:36:18;99628.63;;;12.12;74.81
3780;BME280;1905;52.482;9.802;2023-03-25T12:39:00;99623.56;;;12.09;74.04
3780;BME280;1905;52.482;9.802;2023-03-25T12:41:38;99625.97;;;12.12;73.07
3780;BME280;1905;52.482;9.802;2023-03-25T12:44:19;99611.28;;;12.21;73.75
3780;BME280;1905;52.482;9.802;2023-03-25T12:47:05;99632.66;;;12.18;74.06
3780;BME280;1905;52.482;9.802;2023-03-25T12:49:55;99643.03;;;12.21;72.30
3780;BME280;1905;52.482;9.802;2023-03-25T12:52:31;99627.16;;;12.21;72.13
3780;BME280;1905;52.482;9.802;2023-03-25T12:55:13;99626.31;;;12.20;72.79
3780;BME280;1905;52.482;9.802;2023-03-25T12:57:57;99627.59;;;12.27;73.53
3780;BME280;1905;52.482;9.802;2023-03-25T13:00:37;99614.50;;;12.38;72.79
3780;BME280;1905;52.482;9.802;2023-03-25T13:03:38;99615.97;;;12.42;72.76
3780;BME280;1905;52.482;9.802;2023-03-25T13:06:18;99615.56;;;12.48;73.41
3780;BME280;1905;52.482;9.802;2023-03-25T13:08:51;99618.53;;;12.57;74.01
3780;BME280;1905;52.482;9.802;2023-03-25T13:11:22;99623.59;;;12.60;73.17
3780;BME280;1905;52.482;9.802;2023-03-25T13:13:54;99620.22;;;12.58;71.57
3780;BME280;1905;52.482;9.802;2023-03-25T13:16:28;99602.22;;;12.63;72.28
3780;BME280;1905;52.482;9.802;2023-03-25T13:19:02;99609.63;;;12.70;72.64
3780;BME280;1905;52.482;9.802;2023-03-25T13:21:37;99601.47;;;12.73;71.24
3780;BME280;1905;52.482;9.802;2023-03-25T13:24:10;99597.22;;;12.83;72.30
3780;BME280;1905;52.482;9.802;2023-03-25T13:26:43;99599.53;;;12.75;72.04
3780;BME280;1905;52.482;9.802;2023-03-25T13:29:19;99601.34;;;12.75;70.46
3780;BME280;1905;52.482;9.802;2023-03-25T13:31:49;99609.00;;;12.79;71.33
3780;BME280;1905;52.482;9.802;2023-03-25T13:34:23;99625.63;;;12.81;72.35
3780;BME280;1905;52.482;9.802;2023-03-25T13:37:04;99629.13;;;12.82;74.04
3780;BME280;1905;52.482;9.802;2023-03-25T13:39:53;99642.69;;;12.77;74.71
3780;BME280;1905;52.482;9.802;2023-03-25T13:42:25;99640.13;;;12.76;73.95
3780;BME280;1905;52.482;9.802;2023-03-25T13:44:56;99624.88;;;12.79;75.17
3780;BME280;1905;52.482;9.802;2023-03-25T13:47:29;99639.19;;;12.77;75.29
3780;BME280;1905;52.482;9.802;2023-03-25T13:50:01;99622.97;;;12.81;74.75
3780;BME280;1905;52.482;9.802;2023-03-25T13:52:35;99612.78;;;12.75;75.61
3780;BME280;1905;52.482;9.802;2023-03-25T13:55:11;99634.19;;;12.72;75.42
3780;BME280;1905;52.482;9.802;2023-03-25T13:58:08;99629.97;;;12.70;75.22